createdAt,value
2018-09-30T09:33:43.572Z,17.10
2018-09-30T09:34:16.972Z,16.30
2018-09-30T09:34:51.516Z,15.80
2018-09-30T09:35:28.316Z,15.40
2018-09-30T09:36:05.063Z,15.10
2018-09-30T09:36:38.362Z,14.80
2018-09-30T09:37:12.995Z,14.60
2018-09-30T09:37:49.930Z,14.40
2018-09-30T09:38:26.129Z,14.20
2018-09-30T09:39:00.760Z,14.10
2018-09-30T09:39:34.008Z,14.00
2018-09-30T09:40:07.692Z,14.00
2018-09-30T09:40:42.424Z,14.00
2018-09-30T09:41:16.644Z,14.00
2018-09-30T09:41:50.285Z,13.90
2018-09-30T09:43:01.885Z,13.90
2018-09-30T09:43:36.748Z,13.90
2018-09-30T09:44:10.676Z,13.80
2018-09-30T09:44:45.364Z,13.80
2018-09-30T09:45:19.154Z,13.70
2018-09-30T09:45:53.526Z,13.70
2018-09-30T09:46:27.739Z,13.80
2018-09-30T09:47:01.781Z,13.90
2018-09-30T09:47:35.649Z,13.90
2018-09-30T09:48:10.295Z,13.90
2018-09-30T09:48:44.239Z,14.00
2018-09-30T09:49:18.536Z,14.10
2018-09-30T09:49:53.318Z,14.10
2018-09-30T09:50:27.896Z,14.10
2018-09-30T09:51:01.965Z,14.00
2018-09-30T09:51:36.368Z,14.00
2018-09-30T09:52:12.133Z,14.00
2018-09-30T09:52:46.732Z,14.00
2018-09-30T09:53:18.715Z,14.10
2018-09-30T09:53:53.384Z,14.20
2018-09-30T09:54:27.993Z,14.20
2018-09-30T09:55:02.837Z,14.30
2018-09-30T09:55:38.810Z,14.40
2018-09-30T09:56:12.944Z,14.40
2018-09-30T09:56:46.464Z,14.50
2018-09-30T09:57:22.475Z,14.50
2018-09-30T09:57:56.640Z,14.50
2018-09-30T09:58:30.912Z,14.50
2018-09-30T09:59:05.051Z,14.60
2018-09-30T09:59:39.264Z,14.70
2018-09-30T10:00:12.158Z,14.70
2018-09-30T10:00:48.522Z,14.70
2018-09-30T10:01:22.561Z,14.70
2018-09-30T10:01:57.521Z,14.80
2018-09-30T10:02:31.864Z,14.80
2018-09-30T10:03:06.445Z,14.90
2018-09-30T10:03:39.898Z,14.90
2018-09-30T10:04:13.982Z,15.00
2018-09-30T10:04:47.813Z,15.10
2018-09-30T10:05:22.778Z,15.20
2018-09-30T10:05:57.276Z,15.40
2018-09-30T10:06:31.157Z,15.50
2018-09-30T10:07:05.132Z,15.50
2018-09-30T10:07:39.923Z,15.50
2018-09-30T10:08:11.816Z,15.50
2018-09-30T10:08:46.057Z,15.50
2018-09-30T10:09:20.015Z,15.50
2018-09-30T10:09:53.957Z,15.50
2018-09-30T10:10:27.177Z,15.50
2018-09-30T10:11:00.873Z,15.60
2018-09-30T10:11:35.495Z,15.60
2018-09-30T10:12:11.696Z,15.70
2018-09-30T10:12:45.863Z,15.70
2018-09-30T10:13:20.094Z,15.70
2018-09-30T10:13:53.669Z,15.70
2018-09-30T10:15:04.049Z,15.60
2018-09-30T10:15:37.364Z,15.60
2018-09-30T10:16:13.143Z,15.80
2018-09-30T10:16:46.978Z,16.10
2018-09-30T10:17:21.475Z,16.50
2018-09-30T10:17:54.867Z,16.80
2018-09-30T10:18:30.708Z,16.90
2018-09-30T10:19:06.120Z,16.70
2018-09-30T10:19:39.578Z,16.50
2018-09-30T10:20:14.378Z,16.20
2018-09-30T10:20:48.559Z,16.00
2018-09-30T10:21:22.470Z,15.70
2018-09-30T10:21:57.223Z,15.50
2018-09-30T10:22:31.382Z,15.50
2018-09-30T10:23:04.988Z,15.30
2018-09-30T10:23:39.407Z,15.30
2018-09-30T10:24:13.489Z,15.20
2018-09-30T10:24:46.771Z,15.20
2018-09-30T10:25:20.554Z,15.10
2018-09-30T10:25:57.096Z,15.10
2018-09-30T10:26:31.475Z,15.00
2018-09-30T10:27:05.215Z,15.00
2018-09-30T10:27:39.314Z,15.00
2018-09-30T10:28:14.172Z,15.00
2018-09-30T10:28:48.853Z,15.00
2018-09-30T10:29:22.933Z,15.00
2018-09-30T10:29:57.310Z,15.00
2018-09-30T10:30:30.984Z,15.00
2018-09-30T10:31:05.510Z,14.90
2018-09-30T10:31:39.476Z,14.80
2018-09-30T10:32:13.329Z,14.80
2018-09-30T10:32:47.544Z,14.70
